Time;durP1;ratioP1;P1;durP2;ratioP2;P2;SDS_P1;SDS_P2;PMS_P1;PMS_P2;Temp;Humidity;BMP_temperature;BMP_pressure;BME280_temperature;BME280_humidity;BME280_pressure;Samples;Min_cycle;Max_cycle;Signal;HPM_P1;HPM_P2
2022/03/09 00:04:00;;;;;;;58.85;36.85;;;;;;;1.13;76.32;101121.66;2791096;85;21036;-68
2022/03/09 00:08:02;;;;;;;57.90;33.28;;;;;;;1.27;76.72;101120.80;2808436;84;21075;-69
2022/03/09 00:12:06;;;;;;;70.62;38.53;;;;;;;1.49;76.55;101120.63;2791218;85;21141;-69
2022/03/09 00:16:07;;;;;;;54.15;36.35;;;;;;;1.66;76.41;101124.87;2790910;85;21567;-69
2022/03/09 00:20:10;;;;;;;65.25;37.83;;;;;;;1.80;76.13;101113.97;2790969;84;21059;-68
2022/03/09 00:24:14;;;;;;;68.30;38.95;;;;;;;1.96;75.64;101112.14;2791139;85;21048;-69
2022/03/09 00:28:15;;;;;;;68.60;36.70;;;;;;;2.04;75.16;101107.95;2790939;84;21564;-69
2022/03/09 00:32:17;;;;;;;62.53;35.08;;;;;;;2.01;74.82;101110.24;2791041;84;21083;-69
2022/03/09 00:36:19;;;;;;;52.95;34.92;;;;;;;1.71;76.31;101111.63;2791003;85;21628;-69
2022/03/09 00:40:21;;;;;;;63.30;33.78;;;;;;;1.68;75.80;101111.72;2790834;85;21060;-69
2022/03/09 00:44:22;;;;;;;68.45;39.05;;;;;;;1.46;77.58;101106.27;2813843;84;21074;-69
2022/03/09 00:48:24;;;;;;;59.88;36.95;;;;;;;1.30;78.69;101096.72;2827839;84;21095;-68
2022/03/09 00:52:26;;;;;;;61.88;33.70;;;;;;;1.27;78.92;101098.53;2822608;84;20998;-68
2022/03/09 00:56:27;;;;;;;56.23;34.85;;;;;;;1.23;79.12;101093.41;2818287;84;21114;-69
2022/03/09 01:00:29;;;;;;;68.95;35.95;;;;;;;1.15;79.33;101092.33;2818380;84;21018;-68
2022/03/09 01:04:33;;;;;;;68.40;35.80;;;;;;;0.95;79.75;101091.61;2818685;84;21082;-69
2022/03/09 01:08:34;;;;;;;63.08;36.30;;;;;;;0.88;80.20;101088.31;2797652;84;21054;-68
2022/03/09 01:12:36;;;;;;;74.42;36.88;;;;;;;0.91;79.99;101096.08;2771007;85;21117;-69
2022/03/09 01:16:38;;;;;;;68.85;37.38;;;;;;;0.93;79.21;101085.09;2771608;85;21043;-68
2022/03/09 01:20:40;;;;;;;58.52;37.38;;;;;;;1.08;78.82;101077.27;2771263;85;21899;-68
2022/03/09 01:24:41;;;;;;;57.90;33.75;;;;;;;1.19;78.19;101077.37;2771996;85;21046;-69
2022/03/09 01:28:43;;;;;;;55.05;32.17;;;;;;;1.32;77.88;101085.29;2771959;85;21110;-69
2022/03/09 01:32:45;;;;;;;54.88;32.50;;;;;;;1.41;77.15;101077.59;2772008;85;21075;-69
2022/03/09 01:36:47;;;;;;;55.12;35.65;;;;;;;1.43;76.66;101066.14;2802293;83;21058;-69
2022/03/09 01:40:49;;;;;;;57.75;34.70;;;;;;;1.50;76.26;101065.49;2797762;84;21023;-69
2022/03/09 01:44:50;;;;;;;66.53;37.60;;;;;;;1.59;76.20;101066.12;2707157;87;21110;-69
2022/03/09 01:48:52;;;;;;;76.40;37.60;;;;;;;1.65;75.89;101064.61;2759493;86;21101;-68
2022/03/09 01:52:54;;;;;;;65.47;36.75;;;;;;;1.67;75.69;101062.80;2759581;85;21038;-68
2022/03/09 01:56:57;;;;;;;65.90;39.88;;;;;;;1.65;75.55;101065.45;2759627;85;21058;-69
2022/03/09 02:00:58;;;;;;;66.50;36.77;;;;;;;1.65;75.50;101063.30;2759284;85;21062;-68
2022/03/09 02:05:00;;;;;;;53.35;32.98;;;;;;;1.62;75.29;101062.09;2759783;85;21106;-69
2022/03/09 02:13:20;;;;;;;70.32;36.98;;;;;;;1.66;74.83;101059.30;2657079;89;21040;-68
2022/03/09 02:17:28;;;;;;;63.30;34.55;;;;;;;1.65;75.02;101054.13;2759428;85;21418;-68
2022/03/09 02:21:32;;;;;;;63.65;33.73;;;;;;;1.65;74.80;101065.92;2702192;87;21094;-69
2022/03/09 02:25:34;;;;;;;62.45;34.45;;;;;;;1.36;75.47;101065.94;2759762;86;21404;-69
2022/03/09 02:29:36;;;;;;;48.75;31.75;;;;;;;1.19;75.64;101062.53;2759651;85;21114;-69
2022/03/09 02:33:40;;;;;;;57.20;35.35;;;;;;;1.02;76.45;101056.93;2701882;88;21074;-69
2022/03/09 02:37:43;;;;;;;67.40;37.63;;;;;;;0.90;77.04;101054.22;2780169;84;21066;-69
2022/03/09 02:41:44;;;;;;;58.52;32.60;;;;;;;0.75;77.84;101047.64;2805764;84;21555;-68
2022/03/09 02:45:46;;;;;;;62.13;36.85;;;;;;;0.59;79.03;101051.16;2783478;84;21111;-69
2022/03/09 02:49:48;;;;;;;59.20;37.70;;;;;;;0.62;79.25;101052.38;2701566;87;21087;-69
2022/03/09 02:53:49;;;;;;;61.33;36.73;;;;;;;0.60;79.62;101059.41;2772569;85;21083;-69
2022/03/09 02:57:51;;;;;;;74.77;39.38;;;;;;;0.58;80.01;101054.20;2733849;87;21055;-69
2022/03/09 03:01:53;;;;;;;60.30;37.40;;;;;;;0.62;79.65;101057.17;2733982;87;21027;-69
2022/03/09 03:05:55;;;;;;;69.20;39.13;;;;;;;0.65;79.27;101057.52;2750100;85;21099;-69
2022/03/09 03:09:56;;;;;;;69.62;38.83;;;;;;;0.67;79.19;101057.02;2779770;85;21071;-69
2022/03/09 03:13:58;;;;;;;65.20;38.83;;;;;;;0.67;78.59;101050.47;2779778;85;21008;-69
2022/03/09 03:18:01;;;;;;;58.87;37.33;;;;;;;0.78;78.23;101047.55;2779728;85;21079;-69
2022/03/09 03:22:03;;;;;;;60.75;29.00;;;;;;;0.89;77.57;101054.66;2779545;85;21748;-69
2022/03/09 03:26:06;;;;;;;55.65;33.85;;;;;;;0.63;77.07;101050.16;2779547;85;21162;-69
2022/03/09 03:30:09;;;;;;;64.77;36.60;;;;;;;0.18;80.32;101042.20;2779410;85;21646;-69
2022/03/09 03:34:11;;;;;;;64.65;35.48;;;;;;;0.08;82.05;101047.69;2779218;85;21138;-69
2022/03/09 03:38:14;;;;;;;55.63;31.75;;;;;;;0.04;82.74;101044.75;2779455;85;21123;-69
2022/03/09 03:42:15;;;;;;;57.93;36.77;;;;;;;-0.05;83.17;101047.59;2779851;85;21023;-69
2022/03/09 03:46:17;;;;;;;55.20;32.65;;;;;;;-0.04;83.27;101043.64;2779305;85;21154;-69
2022/03/09 03:50:21;;;;;;;50.75;33.50;;;;;;;-0.10;83.75;101040.31;2726748;85;21091;-69
2022/03/09 03:54:22;;;;;;;66.97;30.97;;;;;;;-0.17;84.00;101045.70;2721436;87;21171;-71
2022/03/09 03:58:25;;;;;;;52.20;27.25;;;;;;;-0.27;84.48;101053.82;2680966;88;21098;-70
2022/03/09 04:02:27;;;;;;;57.00;31.65;;;;;;;-0.29;84.60;101051.23;2756051;84;21111;-69
2022/03/09 04:06:29;;;;;;;54.03;32.45;;;;;;;-0.32;84.59;101052.61;2759410;84;21071;-69
2022/03/09 04:10:31;;;;;;;55.90;31.07;;;;;;;-0.37;84.82;101052.72;2779622;85;21062;-69
2022/03/09 04:14:32;;;;;;;59.77;32.70;;;;;;;-0.39;85.02;101059.73;2779553;85;21111;-69
2022/03/09 04:18:34;;;;;;;53.78;31.52;;;;;;;-0.36;84.63;101061.44;2769450;85;21349;-74
2022/03/09 04:22:35;;;;;;;65.85;35.28;;;;;;;-0.45;85.06;101065.13;2778773;85;21738;-74
2022/03/09 04:26:37;;;;;;;58.23;29.63;;;;;;;-0.47;85.11;101065.61;2778981;85;21614;-73
2022/03/09 04:30:38;;;;;;;47.67;30.02;;;;;;;-0.61;85.33;101043.26;2779010;85;21611;-74
2022/03/09 04:34:40;;;;;;;53.28;33.28;;;;;;;-0.53;85.33;101061.81;2779145;85;21663;-74
2022/03/09 04:38:42;;;;;;;54.77;32.53;;;;;;;-0.57;85.32;101066.27;2778972;85;21067;-74
2022/03/09 04:42:43;;;;;;;50.15;32.25;;;;;;;-0.52;85.11;101067.02;2778956;85;21634;-74
2022/03/09 04:46:45;;;;;;;56.68;34.38;;;;;;;-0.50;85.07;101066.96;2778752;85;21602;-74
2022/03/09 04:50:47;;;;;;;55.55;32.55;;;;;;;-0.41;84.54;101064.58;2779201;85;21036;-74
2022/03/09 04:54:49;;;;;;;75.95;45.88;;;;;;;-0.38;83.98;101065.38;2779008;85;21059;-75
2022/03/09 04:58:50;;;;;;;49.80;29.10;;;;;;;-0.24;83.55;101074.19;2779148;85;21063;-75
2022/03/09 05:02:52;;;;;;;75.50;43.83;;;;;;;-0.19;83.05;101084.12;2778705;85;21079;-75
2022/03/09 05:06:55;;;;;;;49.97;28.23;;;;;;;-0.05;82.68;101078.97;2779248;85;21106;-75
2022/03/09 05:10:56;;;;;;;43.42;26.02;;;;;;;0.12;82.21;101078.56;2779370;85;21038;-73
2022/03/09 05:14:58;;;;;;;46.88;27.35;;;;;;;0.30;81.43;101083.77;2779446;85;21044;-73
2022/03/09 05:18:59;;;;;;;48.85;28.12;;;;;;;0.25;80.26;101083.03;2779053;85;21102;-74
2022/03/09 05:23:01;;;;;;;40.33;24.67;;;;;;;0.20;80.28;101088.84;2778679;85;21578;-75
2022/03/09 05:27:02;;;;;;;109.83;64.17;;;;;;;0.17;80.57;101090.20;2778836;85;21110;-75
2022/03/09 05:31:04;;;;;;;98.45;50.33;;;;;;;0.22;80.41;101098.81;2778755;85;21055;-75
2022/03/09 05:35:08;;;;;;;97.22;57.88;;;;;;;0.37;80.22;101101.02;2778671;85;21016;-75
2022/03/09 05:39:10;;;;;;;93.67;54.27;;;;;;;0.52;79.44;101108.06;2778812;85;21650;-74
2022/03/09 05:43:12;;;;;;;88.35;49.73;;;;;;;0.49;78.20;101110.77;2779124;85;21504;-75
2022/03/09 05:47:13;;;;;;;46.77;31.15;;;;;;;0.50;78.31;101121.64;2778802;85;21059;-75
2022/03/09 05:51:15;;;;;;;40.88;27.82;;;;;;;0.62;78.65;101122.64;2779068;85;21047;-75
2022/03/09 05:55:17;;;;;;;52.17;32.95;;;;;;;0.66;77.85;101129.50;2778295;85;21067;-75
2022/03/09 05:59:18;;;;;;;50.10;30.97;;;;;;;0.61;77.58;101143.17;2778856;85;21640;-75
2022/03/09 06:03:20;;;;;;;41.35;25.32;;;;;;;0.54;77.96;101133.31;2778937;85;21043;-75
2022/03/09 06:07:21;;;;;;;51.30;29.15;;;;;;;0.49;78.45;101136.95;2778667;85;21055;-75
2022/03/09 06:11:23;;;;;;;48.90;26.55;;;;;;;0.50;78.48;101137.35;2779325;85;21063;-75
2022/03/09 06:15:24;;;;;;;49.03;25.62;;;;;;;0.60;78.56;101133.61;2778947;85;21194;-76
2022/03/09 06:19:28;;;;;;;50.03;26.23;;;;;;;0.74;78.31;101140.21;2779461;85;21106;-76
2022/03/09 06:23:29;;;;;;;42.75;25.52;;;;;;;0.90;78.32;101138.89;2780810;85;21092;-75
2022/03/09 06:27:42;;;;;;;42.78;26.25;;;;;;;1.05;77.92;101134.13;2779538;85;21575;-75
2022/03/09 06:31:46;;;;;;;50.85;29.72;;;;;;;1.13;77.76;101139.56;2775205;85;21091;-75
2022/03/09 06:35:48;;;;;;;48.87;30.35;;;;;;;1.32;77.79;101150.83;2778895;85;21040;-75
2022/03/09 06:39:49;;;;;;;54.98;29.70;;;;;;;1.47;77.33;101148.19;2778998;85;21066;-75
2022/03/09 06:43:51;;;;;;;51.70;28.32;;;;;;;1.66;77.50;101152.41;2778974;84;21050;-75
2022/03/09 06:47:53;;;;;;;46.68;29.52;;;;;;;1.87;77.30;101150.50;2789315;85;21082;-75
2022/03/09 06:51:54;;;;;;;47.13;30.50;;;;;;;2.13;77.40;101157.54;2789544;85;21062;-75
2022/03/09 06:55:56;;;;;;;48.42;31.40;;;;;;;2.43;77.55;101146.47;2789650;85;21063;-75
2022/03/09 06:59:58;;;;;;;53.87;35.13;;;;;;;2.76;76.60;101145.81;2789311;85;21058;-75
2022/03/09 07:03:59;;;;;;;49.48;31.35;;;;;;;3.00;76.29;101144.92;2789811;85;21582;-75
2022/03/09 07:08:01;;;;;;;40.80;30.25;;;;;;;3.18;76.28;101141.66;2790220;85;21546;-76
2022/03/09 07:12:03;;;;;;;54.08;31.82;;;;;;;3.41;75.60;101143.44;2789695;85;21051;-75
2022/03/09 07:16:05;;;;;;;44.93;29.15;;;;;;;3.51;75.63;101156.63;2789501;85;21059;-75
2022/03/09 07:20:08;;;;;;;50.63;29.85;;;;;;;3.51;74.84;101151.84;2789567;85;21058;-75
2022/03/09 07:24:09;;;;;;;47.23;27.30;;;;;;;3.51;75.17;101150.05;2789720;85;21047;-74
2022/03/09 07:28:11;;;;;;;48.50;25.50;;;;;;;3.47;73.48;101151.09;2789761;84;21123;-74
2022/03/09 07:32:14;;;;;;;44.63;30.75;;;;;;;3.42;73.45;101153.05;2789691;85;21087;-75
2022/03/09 07:36:16;;;;;;;54.48;30.10;;;;;;;3.53;74.05;101148.21;2789436;85;21051;-75
2022/03/09 07:40:18;;;;;;;45.40;28.77;;;;;;;3.59;73.78;101143.66;2790024;85;21047;-75
2022/03/09 07:44:20;;;;;;;54.73;28.05;;;;;;;3.69;75.28;101141.05;2788700;84;21603;-74
2022/03/09 07:48:21;;;;;;;59.65;28.95;;;;;;;3.77;74.93;101144.69;2779459;85;21059;-74
2022/03/09 07:52:23;;;;;;;40.83;27.67;;;;;;;3.89;74.25;101152.55;2779514;85;21583;-74
2022/03/09 07:56:25;;;;;;;38.50;24.32;;;;;;;3.92;72.91;101144.53;2779564;85;21047;-74
2022/03/09 08:00:27;;;;;;;37.80;23.27;;;;;;;4.05;73.00;101145.76;2779941;85;21102;-74
2022/03/09 08:04:29;;;;;;;50.95;30.82;;;;;;;4.17;72.88;101158.87;2779698;85;21595;-73
2022/03/09 08:08:30;;;;;;;41.90;25.32;;;;;;;4.48;73.37;101168.16;2779575;85;21655;-74
2022/03/09 08:12:34;;;;;;;39.88;26.87;;;;;;;4.70;71.01;101160.64;2779137;85;21035;-73
2022/03/09 08:16:36;;;;;;;40.90;22.93;;;;;;;4.83;70.93;101139.88;2780007;85;21743;-74
2022/03/09 08:20:38;;;;;;;39.10;26.87;;;;;;;4.87;70.59;101138.81;2779580;85;21607;-74
2022/03/09 08:24:39;;;;;;;34.63;26.77;;;;;;;5.06;70.92;101132.71;2779963;85;21102;-73
2022/03/09 08:28:41;;;;;;;41.45;23.77;;;;;;;5.19;70.79;101131.23;2780106;85;21060;-73
2022/03/09 08:32:42;;;;;;;32.70;22.60;;;;;;;5.34;70.15;101128.34;2780288;85;21000;-74
2022/03/09 08:36:44;;;;;;;34.85;22.13;;;;;;;5.40;70.35;101129.41;2780021;85;20988;-74
2022/03/09 08:40:46;;;;;;;40.45;24.57;;;;;;;5.49;69.13;101135.16;2780464;85;21571;-73
2022/03/09 08:44:47;;;;;;;49.08;24.70;;;;;;;5.69;69.80;101133.75;2781203;85;21091;-74
2022/03/09 08:48:49;;;;;;;38.88;26.33;;;;;;;5.85;69.31;101139.14;2791187;85;21597;-74
2022/03/09 08:52:51;;;;;;;35.98;23.95;;;;;;;6.05;68.88;101142.63;2791183;83;21078;-74
2022/03/09 08:56:53;;;;;;;39.65;23.50;;;;;;;6.25;68.32;101135.50;2790951;85;21122;-72
2022/03/09 09:00:55;;;;;;;35.23;23.92;;;;;;;6.46;66.81;101137.98;2791459;85;21098;-73
2022/03/09 09:04:57;;;;;;;32.78;22.73;;;;;;;6.65;66.45;101144.04;2791087;85;21693;-73
2022/03/09 09:08:59;;;;;;;43.70;26.02;;;;;;;6.76;65.35;101141.33;2791663;85;21059;-73
2022/03/09 09:13:01;;;;;;;37.63;23.30;;;;;;;7.03;63.89;101138.14;2791406;85;21067;-73
2022/03/09 09:17:03;;;;;;;33.25;23.60;;;;;;;7.29;63.74;101138.94;2791149;85;21059;-73
2022/03/09 09:21:06;;;;;;;28.83;18.17;;;;;;;7.54;63.98;101136.25;2791774;85;21055;-72
2022/03/09 09:25:09;;;;;;;31.80;18.32;;;;;;;7.73;63.47;101136.55;2792020;84;21078;-73
2022/03/09 09:29:11;;;;;;;34.40;19.07;;;;;;;7.96;62.98;101133.06;2792051;84;21117;-73
2022/03/09 09:33:13;;;;;;;24.57;15.85;;;;;;;8.07;61.62;101125.36;2792174;85;21055;-72
2022/03/09 09:37:15;;;;;;;25.65;17.12;;;;;;;8.25;61.05;101123.88;2792177;85;21047;-73
2022/03/09 09:41:19;;;;;;;25.40;14.87;;;;;;;8.27;61.20;101122.02;2792305;85;21126;-72
2022/03/09 09:45:21;;;;;;;23.25;15.58;;;;;;;8.43;61.47;101121.95;2790185;85;21098;-73
2022/03/09 09:49:25;;;;;;;16.95;12.37;;;;;;;8.49;61.84;101113.62;2782084;85;21012;-73
2022/03/09 09:53:30;;;;;;;22.60;15.55;;;;;;;8.59;58.62;101121.08;2782297;85;21052;-73
2022/03/09 09:57:32;;;;;;;23.52;13.55;;;;;;;8.67;59.45;101117.02;2782097;85;21579;-73
2022/03/09 10:01:35;;;;;;;19.20;12.20;;;;;;;8.81;58.46;101117.95;2782392;85;21075;-73
2022/03/09 10:05:37;;;;;;;12.55;8.88;;;;;;;8.93;57.53;101126.50;2782252;85;21086;-73
2022/03/09 10:09:41;;;;;;;11.45;7.47;;;;;;;9.14;56.50;101119.47;2782406;85;21115;-73
2022/03/09 10:13:47;;;;;;;8.00;6.87;;;;;;;9.38;52.25;101121.52;2782435;85;21086;-73
2022/03/09 10:17:49;;;;;;;10.38;5.83;;;;;;;9.63;54.31;101123.92;2782446;85;21032;-73
2022/03/09 10:21:50;;;;;;;9.38;6.65;;;;;;;9.74;52.32;101130.73;2782588;85;21375;-73
2022/03/09 10:26:02;;;;;;;8.00;6.42;;;;;;;9.84;51.04;101128.33;2782753;85;21071;-73
2022/03/09 10:30:14;;;;;;;9.10;7.12;;;;;;;9.78;50.52;101116.30;2782818;85;21082;-71
2022/03/09 10:34:24;;;;;;;14.23;7.35;;;;;;;9.88;50.25;101113.05;2770141;86;21103;-72
2022/03/09 10:38:28;;;;;;;12.33;7.08;;;;;;;9.94;50.11;101116.62;2705818;87;21598;-73
2022/03/09 10:42:29;;;;;;;13.00;7.83;;;;;;;9.93;50.99;101109.61;2705888;88;21055;-72
2022/03/09 10:46:50;;;;;;;12.88;8.75;;;;;;;9.94;50.11;101115.30;2705548;86;21139;-72
2022/03/09 10:50:53;;;;;;;12.73;8.03;;;;;;;10.05;51.30;101110.59;2705875;88;21008;-73
2022/03/09 10:55:11;;;;;;;12.13;7.53;;;;;;;10.12;51.46;101106.56;2706319;87;21107;-72
2022/03/09 10:59:21;;;;;;;9.80;6.00;;;;;;;10.23;50.82;101109.36;2782410;85;21035;-72
2022/03/09 11:03:26;;;;;;;11.95;7.50;;;;;;;10.24;50.00;101104.91;2783573;85;21044;-73
2022/03/09 11:07:28;;;;;;;12.88;6.97;;;;;;;10.44;48.97;101100.91;2750581;86;21055;-73
2022/03/09 11:11:30;;;;;;;21.25;12.00;;;;;;;10.49;49.06;101102.77;2771258;85;21075;-73
2022/03/09 11:15:32;;;;;;;14.05;7.30;;;;;;;10.62;49.83;101096.16;2771150;86;21106;-72
2022/03/09 11:19:35;;;;;;;16.40;8.80;;;;;;;10.78;48.40;101086.61;2771056;85;21059;-73
2022/03/09 11:23:40;;;;;;;11.65;6.65;;;;;;;10.65;49.02;101089.28;2771722;85;21068;-72
2022/03/09 11:27:46;;;;;;;7.62;6.05;;;;;;;10.60;48.15;101090.06;2771327;85;21075;-73
2022/03/09 11:31:53;;;;;;;7.33;6.58;;;;;;;10.65;49.92;101075.98;2771477;86;21024;-73
2022/03/09 11:35:55;;;;;;;10.85;7.20;;;;;;;10.54;49.60;101090.03;2771273;85;21087;-73
2022/03/09 11:40:12;;;;;;;13.50;7.17;;;;;;;10.64;48.19;101077.41;2706798;87;21098;-73
2022/03/09 11:44:29;;;;;;;10.85;6.62;;;;;;;10.62;49.10;101073.54;2706670;88;21079;-72
2022/03/09 11:48:51;;;;;;;8.28;5.40;;;;;;;10.80;49.87;101071.85;2791028;84;21146;-73
2022/03/09 11:53:08;;;;;;;8.90;6.55;;;;;;;10.87;50.18;101074.47;2794408;85;21007;-73
2022/03/09 11:57:12;;;;;;;9.93;7.20;;;;;;;10.99;49.02;101076.24;2794218;85;21119;-73
2022/03/09 12:01:14;;;;;;;11.50;6.72;;;;;;;11.14;49.37;101074.32;2794510;84;21070;-73
2022/03/09 12:05:34;;;;;;;12.90;7.87;;;;;;;11.05;46.71;101064.81;2794633;85;21047;-72
2022/03/09 12:09:57;;;;;;;8.20;6.62;;;;;;;10.95;48.52;101068.61;2794047;84;21048;-72
2022/03/09 12:13:59;;;;;;;11.10;7.95;;;;;;;11.11;47.96;101071.88;2794372;85;21031;-73
2022/03/09 12:18:00;;;;;;;14.55;9.65;;;;;;;11.15;48.64;101075.16;2794165;85;21054;-72
2022/03/09 12:22:04;;;;;;;8.78;6.28;;;;;;;11.21;48.30;101077.40;2794132;85;21019;-73
2022/03/09 12:26:08;;;;;;;13.13;8.08;;;;;;;11.07;47.23;101070.38;2793982;85;21095;-72
2022/03/09 12:30:32;;;;;;;11.85;8.68;;;;;;;11.20;48.65;101078.83;2794383;85;21059;-72
2022/03/09 12:34:39;;;;;;;13.53;8.23;;;;;;;11.30;48.10;101070.56;2793699;85;21043;-72
2022/03/09 12:38:53;;;;;;;15.95;9.95;;;;;;;11.21;47.10;101059.22;2794177;85;21067;-72
2022/03/09 12:42:59;;;;;;;19.07;9.20;;;;;;;11.19;47.51;101056.66;2794107;85;21043;-73
2022/03/09 12:47:04;;;;;;;18.65;10.63;;;;;;;11.16;48.86;101054.22;2790618;85;21103;-72
2022/03/09 12:51:06;;;;;;;16.07;11.10;;;;;;;11.14;48.31;101066.33;2784042;85;21544;-72
2022/03/09 12:55:09;;;;;;;14.15;10.32;;;;;;;11.15;48.19;101055.18;2783562;85;21036;-72
2022/03/09 12:59:15;;;;;;;13.20;9.18;;;;;;;11.23;48.38;101055.97;2784106;85;21008;-73
2022/03/09 13:03:17;;;;;;;25.45;9.23;;;;;;;11.29;47.73;101062.16;2784163;85;21705;-72
2022/03/09 13:07:19;;;;;;;19.77;11.97;;;;;;;11.29;47.43;101052.38;2783994;85;21651;-71
2022/03/09 13:11:33;;;;;;;15.25;9.68;;;;;;;11.29;46.61;101050.19;2783896;85;21055;-73
2022/03/09 13:15:59;;;;;;;8.70;6.60;;;;;;;11.39;49.12;101050.36;2784294;85;21019;-72
2022/03/09 13:19:52;;;;;;;12.73;8.68;;;;;;;11.43;44.75;101046.53;2781561;85;21059;-72
2022/03/09 13:24:07;;;;;;;10.00;6.03;;;;;;;11.44;47.52;101040.24;2784213;85;21047;-73
2022/03/09 13:28:08;;;;;;;8.60;6.05;;;;;;;11.40;45.52;101043.59;2784473;85;21016;-71
2022/03/09 13:32:11;;;;;;;10.03;5.97;;;;;;;11.44;44.72;101042.91;2784430;85;21087;-72
2022/03/09 13:36:17;;;;;;;8.30;6.03;;;;;;;11.51;45.73;101047.30;2784005;85;21114;-72
2022/03/09 13:40:18;;;;;;;13.88;7.87;;;;;;;11.34;42.61;101045.39;2784134;85;21111;-72
2022/03/09 13:44:28;;;;;;;8.95;6.70;;;;;;;11.35;42.70;101036.44;2784227;85;21011;-72
2022/03/09 13:48:30;;;;;;;6.92;5.05;;;;;;;11.37;42.89;101041.63;2784215;85;21560;-72
2022/03/09 13:52:35;;;;;;;10.82;6.78;;;;;;;11.34;43.99;101035.20;2784452;85;21019;-72
2022/03/09 13:56:37;;;;;;;11.75;7.15;;;;;;;11.29;42.79;101023.08;2784538;85;21127;-72
2022/03/09 14:00:41;;;;;;;10.05;7.08;;;;;;;11.36;42.82;101031.95;2784045;85;21560;-72
2022/03/09 14:04:47;;;;;;;9.78;7.55;;;;;;;11.40;42.06;101028.12;2784398;85;21088;-72
2022/03/09 14:08:52;;;;;;;11.23;7.50;;;;;;;11.37;44.05;101021.19;2784778;85;20980;-72
2022/03/09 14:12:56;;;;;;;9.75;6.45;;;;;;;11.38;42.54;101032.67;2769956;84;21810;-73
2022/03/09 14:16:58;;;;;;;9.63;7.25;;;;;;;11.33;43.86;101032.17;2735817;85;21034;-73
2022/03/09 14:21:00;;;;;;;9.60;6.87;;;;;;;11.34;44.76;101033.87;2724193;86;21375;-73
2022/03/09 14:25:02;;;;;;;9.93;7.05;;;;;;;11.34;45.35;101033.87;2768277;85;21059;-73
2022/03/09 14:29:05;;;;;;;10.53;7.40;;;;;;;11.38;43.31;101022.02;2767565;85;21103;-72
2022/03/09 14:33:06;;;;;;;13.75;7.17;;;;;;;11.27;42.75;101027.67;2703339;87;21103;-73
2022/03/09 14:37:11;;;;;;;12.20;7.45;;;;;;;11.29;43.59;101025.74;2702984;88;21477;-73
2022/03/09 14:41:13;;;;;;;8.20;6.10;;;;;;;11.46;44.50;101026.32;2779878;84;21114;-72
2022/03/09 14:45:16;;;;;;;7.33;6.00;;;;;;;11.36;43.55;101027.95;2779949;85;21078;-73
2022/03/09 14:49:18;;;;;;;12.20;7.17;;;;;;;11.42;45.49;101026.19;2780076;85;21126;-73
2022/03/09 14:53:25;;;;;;;11.70;7.45;;;;;;;11.50;44.84;101017.13;2779789;85;21094;-73
2022/03/09 14:57:24;;;;;;;9.43;8.50;;;;;;;11.34;44.21;101018.76;2780285;85;21055;-73
2022/03/09 15:01:26;;;;;;;10.80;7.20;;;;;;;11.40;45.67;101025.45;2780410;85;21032;-73
2022/03/09 15:05:28;;;;;;;10.00;7.00;;;;;;;11.33;44.02;101021.05;2780190;85;21067;-72
2022/03/09 15:09:31;;;;;;;12.20;7.22;;;;;;;11.37;45.68;101017.66;2780077;85;21063;-73
2022/03/09 15:13:33;;;;;;;11.65;8.05;;;;;;;11.35;44.30;101015.59;2779922;85;21119;-72
2022/03/09 15:17:34;;;;;;;11.08;7.83;;;;;;;11.23;45.33;101023.54;2780033;85;21559;-72
2022/03/09 15:21:36;;;;;;;10.72;7.92;;;;;;;11.16;45.52;101018.77;2780283;85;21524;-74
2022/03/09 15:25:38;;;;;;;10.18;7.80;;;;;;;11.17;45.39;101029.29;2779698;85;21071;-73
2022/03/09 15:29:40;;;;;;;15.00;8.63;;;;;;;11.09;44.59;101030.34;2780145;85;21114;-73
2022/03/09 15:33:42;;;;;;;19.45;8.70;;;;;;;10.93;44.47;101028.77;2780416;85;21102;-73
2022/03/09 15:37:44;;;;;;;11.35;7.55;;;;;;;10.83;45.07;101031.74;2779928;85;21078;-73
2022/03/09 15:41:45;;;;;;;9.03;7.62;;;;;;;10.73;45.24;101030.67;2780383;85;21082;-72
2022/03/09 15:45:47;;;;;;;16.35;7.83;;;;;;;10.64;46.83;101023.73;2780351;85;21051;-73
2022/03/09 15:49:49;;;;;;;8.53;6.75;;;;;;;10.52;45.42;101029.44;2779714;85;21055;-73
2022/03/09 15:53:50;;;;;;;12.18;8.23;;;;;;;10.48;48.07;101025.27;2779942;85;21090;-73
2022/03/09 15:57:54;;;;;;;11.33;7.75;;;;;;;10.32;47.13;101029.45;2779857;85;21150;-73
2022/03/09 16:01:55;;;;;;;13.30;8.38;;;;;;;10.29;48.48;101029.66;2780363;85;21591;-73
2022/03/09 16:05:57;;;;;;;9.40;8.13;;;;;;;10.23;48.89;101035.41;2779872;85;21055;-73
2022/03/09 16:09:59;;;;;;;10.75;8.38;;;;;;;10.12;48.61;101038.31;2779948;85;21066;-73
2022/03/09 16:14:00;;;;;;;10.43;8.13;;;;;;;9.97;49.46;101045.98;2779820;85;21062;-73
2022/03/09 16:18:02;;;;;;;16.60;10.23;;;;;;;9.77;49.78;101053.48;2780118;85;21036;-73
2022/03/09 16:22:04;;;;;;;15.68;10.50;;;;;;;9.57;49.95;101047.68;2772713;84;21516;-69
2022/03/09 16:26:07;;;;;;;15.98;9.00;;;;;;;9.38;49.86;101043.19;2771309;84;21051;-69
2022/03/09 16:30:10;;;;;;;14.53;9.10;;;;;;;9.25;50.48;101054.63;2752738;85;21084;-69
2022/03/09 16:34:12;;;;;;;17.98;9.05;;;;;;;9.04;51.24;101058.16;2757324;85;21066;-69
2022/03/09 16:38:15;;;;;;;15.45;8.68;;;;;;;8.83;51.47;101062.99;2769719;86;21091;-70
2022/03/09 16:42:17;;;;;;;13.55;9.10;;;;;;;8.67;51.63;101065.30;2771090;84;21024;-69
2022/03/09 16:46:22;;;;;;;14.87;9.10;;;;;;;8.54;51.30;101069.62;2793612;85;21082;-69
2022/03/09 16:50:24;;;;;;;18.02;9.03;;;;;;;8.42;51.59;101073.84;2836036;83;21586;-69
2022/03/09 16:54:26;;;;;;;14.15;10.38;;;;;;;8.28;51.49;101078.66;2840514;83;21059;-69
2022/03/09 16:58:27;;;;;;;17.80;9.90;;;;;;;8.15;51.82;101082.02;2840568;83;21059;-69
2022/03/09 17:02:29;;;;;;;11.05;8.55;;;;;;;8.04;51.98;101086.25;2840504;83;21579;-70
2022/03/09 17:06:31;;;;;;;17.17;11.03;;;;;;;7.92;52.45;101091.80;2839976;83;21646;-69
2022/03/09 17:10:33;;;;;;;19.45;12.13;;;;;;;7.77;53.00;101100.16;2831517;83;21053;-69
2022/03/09 17:14:36;;;;;;;14.23;12.25;;;;;;;7.57;53.05;101101.66;2742937;86;29530;-69
2022/03/09 17:18:37;;;;;;;23.57;14.00;;;;;;;7.42;53.32;101103.38;2805598;84;21566;-69
2022/03/09 17:22:41;;;;;;;24.15;14.15;;;;;;;7.27;53.27;101110.84;2804729;84;21503;-69
2022/03/09 17:26:44;;;;;;;25.60;15.75;;;;;;;7.20;53.36;101120.89;2804697;84;21057;-69
2022/03/09 17:30:46;;;;;;;18.70;13.03;;;;;;;7.13;53.64;101131.44;2804891;84;21076;-69
2022/03/09 17:34:48;;;;;;;19.95;12.35;;;;;;;7.11;53.84;101138.61;2804983;84;21030;-69
2022/03/09 17:38:50;;;;;;;19.87;10.03;;;;;;;7.06;53.71;101141.95;2805140;84;21514;-69
2022/03/09 17:42:52;;;;;;;13.68;9.65;;;;;;;7.00;53.81;101153.73;2805114;84;21113;-69
2022/03/09 17:46:53;;;;;;;15.03;9.23;;;;;;;6.94;54.01;101156.23;2805330;84;21073;-69
2022/03/09 17:50:55;;;;;;;13.98;9.70;;;;;;;6.84;54.24;101159.83;2748182;84;21086;-69
2022/03/09 17:54:57;;;;;;;13.60;9.93;;;;;;;6.81;54.39;101171.02;2735087;87;21685;-69
2022/03/09 17:59:00;;;;;;;15.18;8.53;;;;;;;6.80;54.59;101176.80;2735171;86;21077;-68
2022/03/09 18:03:03;;;;;;;15.15;9.48;;;;;;;6.78;54.55;101182.63;2734431;87;21106;-68
2022/03/09 18:07:05;;;;;;;12.75;8.00;;;;;;;6.76;54.49;101187.59;2735283;87;21066;-69
2022/03/09 18:11:06;;;;;;;13.68;9.18;;;;;;;6.72;54.43;101185.57;2734845;85;21081;-69
2022/03/09 18:15:10;;;;;;;12.65;9.45;;;;;;;6.71;54.46;101190.47;2734528;87;21085;-70
2022/03/09 18:19:11;;;;;;;16.37;9.88;;;;;;;6.65;54.66;101196.08;2734767;87;21093;-71
2022/03/09 18:23:13;;;;;;;16.25;9.60;;;;;;;6.62;54.77;101193.12;2734286;87;21061;-71
2022/03/09 18:27:17;;;;;;;15.03;10.82;;;;;;;6.58;55.04;101202.14;2753988;84;21047;-70
2022/03/09 18:31:19;;;;;;;20.02;10.25;;;;;;;6.49;55.23;101204.78;2763838;84;21058;-70
2022/03/09 18:35:21;;;;;;;15.68;10.20;;;;;;;6.46;55.27;101205.39;2762464;85;21029;-70
2022/03/09 18:39:23;;;;;;;13.93;9.30;;;;;;;6.45;55.36;101212.93;2764341;85;21546;-70
2022/03/09 18:43:24;;;;;;;12.50;9.60;;;;;;;6.45;55.36;101211.61;2780338;85;21082;-70
2022/03/09 18:47:29;;;;;;;15.75;11.48;;;;;;;6.39;55.59;101219.41;2780797;85;21070;-70